x

Long Key, Fl (lonf1) Weather Station

3:00am - Mon 27th Mar 2017 All times are CDT. -4 hours from GMT.

  • Wind
    11mph, 13mph gusts
  • Sea Temp 75°f
  • Air Temp 74°f
  • Sea Pressure 1017mb
  • Long Key, Fl
  • Long Key, Fl

More Historic Weather Station data

Upgrade to MSW Pro to gain access to the past 30 days of data for over 8000 Wavebouys and Weather Stations around the globe.

Join Pro

Comparision Forecast

View Surf forecast
   
Mon 03/27 3:00am 11 13 mph 1017mb 75f 74f
2:00am 15 16 mph 1017.7mb 75f 74f
1:00am 15 16 mph 1018.2mb 75f 74f
12:00am 16 17 mph 1018.6mb 75f 75f
Sun 03/26 11:00pm 16 18 mph 1019mb 76f 75f
10:00pm 16 17 mph 1019.2mb 76f 75f
9:00pm 15 17 mph 1018.8mb 76f 75f
8:00pm 16 18 mph 1018.1mb 76f 75f
7:00pm 15 17 mph 1017.8mb 76f 75f
6:00pm 15 17 mph 1017.4mb 76f 75f
5:00pm 11 14 mph 1017.5mb 76f 76f
4:00pm 11 14 mph 1017.7mb 76f 75f
3:00pm 13 14 mph 1018.2mb 76f 75f
2:00pm 11 14 mph 1018.6mb 75f 75f
1:00pm 9 11 mph 1019.3mb 74f 75f
12:00pm 9 10 mph 1019.8mb 74f 75f
11:00am 10 11 mph 1019.8mb 74f 75f
10:00am 11 15 mph 1019.4mb 74f 75f
9:00am 14 15 mph 1018.8mb 73f 74f
8:00am 14 15 mph 1018.1mb 74f 74f
7:00am 13 14 mph 1017.9mb 74f 74f
6:00am 13 14 mph 1017.5mb 74f 74f
5:00am 14 15 mph 1017.3mb 74f 74f
4:00am 13 14 mph 1017.3mb 74f 74f
3:00am 14 15 mph 1018mb 74f 74f
2:00am 15 17 mph 1018.5mb 74f 74f
1:00am 15 16 mph 1018.8mb 74f 74f
12:00am 15 16 mph 1019.3mb 74f 74f
Sat 03/25 11:00pm 16 17 mph 1019.4mb 74f 74f
10:00pm 15 16 mph 1019.4mb 74f 74f
9:00pm 13 15 mph 1019.2mb 75f 74f
8:00pm 15 16 mph 1018.8mb 75f 74f
7:00pm 17 20 mph 1018.8mb 75f 74f
6:00pm 15 16 mph 1019.1mb 75f 73f
5:00pm 14 15 mph 1019.4mb 75f 75f
4:00pm 13 14 mph 1020.1mb 75f 75f
3:00pm 15 17 mph 1020.5mb 75f 74f
2:00pm 15 17 mph 1021mb 74f 75f
1:00pm 18 21 mph 1021.8mb 74f 74f
12:00pm 15 17 mph 1022.1mb 73f 74f
11:00am 17 21 mph 1022.1mb 73f 74f
10:00am 16 18 mph 1022mb 73f 74f
9:00am 16 18 mph 1021.5mb 73f 74f
8:00am 13 15 mph 1021.2mb 73f 73f
7:00am 17 21 mph 1020.5mb 73f 73f
6:00am 16 17 mph 1020.1mb 73f 74f
5:00am 18 21 mph 1019.9mb 73f 73f
4:00am 16 18 mph 1020.4mb 74f 74f
3:00am 18 22 mph 1020.9mb 74f 74f
2:00am 21 22 mph 1021.6mb 74f 74f
1:00am 22 24 mph 1022.4mb 74f 74f
12:00am 20 23 mph 1022.8mb 74f 74f
Fri 03/24 11:00pm 22 25 mph 1022.6mb 75f 74f
10:00pm 23 26 mph 1022.2mb 75f 74f
9:00pm 21 23 mph 1022mb 75f 74f
8:00pm 22 25 mph 1021.7mb 75f 74f
7:00pm 22 24 mph 1021.3mb 75f 74f
6:00pm 20 22 mph 1021.4mb 75f 71f
5:00pm 23 25 mph 1021.6mb 75f 73f
4:00pm 23 25 mph 1022.1mb 75f 74f
3:00pm 18 21 mph 1022.6mb 74f 73f
2:00pm 23 26 mph 1023.1mb 74f 72f
1:00pm 21 23 mph 1024.2mb 74f 70f
12:00pm 22 25 mph 1024.4mb 74f 73f
11:00am 22 25 mph 1024.4mb 74f 73f
10:00am 24 26 mph 1024.1mb 74f 73f
9:00am 22 25 mph 1023.7mb 74f 74f
8:00am 21 23 mph 1023.1mb 73f 73f
7:00am 22 26 mph 1022.3mb 73f 73f
6:00am 22 25 mph 1022mb 74f 70f
5:00am 23 28 mph 1022.3mb 74f 68f
4:00am 20 22 mph 1022.2mb 74f 73f
3:00am 20 24 mph 1023mb 74f 72f
2:00am 16 18 mph 1023.2mb 74f 71f
1:00am 21 24 mph 1023.5mb 74f 72f
12:00am 21 23 mph 1022.9mb 75f 74f
Thu 03/23 11:00pm 16 17 mph 1023.2mb 75f 73f
10:00pm 18 21 mph 1022.2mb 75f 71f
9:00pm 22 24 mph 1022.8mb 75f 73f
8:00pm 8 9 mph 1022.5mb 75f 75f
7:00pm 11 13 mph 1021.8mb 75f 75f
6:00pm 10 11 mph 1020.8mb 76f 76f
5:00pm 10 11 mph 1020.4mb 76f 75f
4:00pm 9 10 mph 1020.7mb 75f 76f
3:00pm 1 2 mph 1021.3mb 75f 74f
2:00pm 1 5 mph 1022mb 74f 73f
1:00pm 6 7 mph 1022.7mb 74f 71f
12:00pm 3 6 mph 1022.8mb 73f 70f
11:00am 7 8 mph 1022.7mb 73f 69f
10:00am 6 8 mph 1022.2mb 72f 68f
9:00am 10 11 mph 1021.3mb 72f 68f